Time,TemperatureF,DewpointF,PressureIn,WindDirection,WindDirectionDegrees,WindSpeedMPH,WindSpeedGustMPH,Humidity,HourlyPrecipIn,Conditions,Clouds,dailyrainin,SolarRadiationWatts/m^2,SoftwareType,DateUTC
2013-03-28 09:02:00,75.0,59.0,-100.00,NNE,28,10.0,14.0,57,0.00,,,0.00,219.000000,,2013-03-28 19:02:00,
2013-03-28 09:12:00,75.0,59.0,-100.00,NNE,28,10.0,14.0,57,0.00,,,0.00,219.000000,,2013-03-28 19:12:00,
2013-03-28 09:22:00,75.0,59.0,-100.00,NNE,28,10.0,14.0,57,0.00,,,0.00,219.000000,,2013-03-28 19:22:00,
2013-03-28 09:32:00,75.0,59.0,-100.00,NNE,28,10.0,14.0,57,0.00,,,0.00,219.000000,,2013-03-28 19:32:00,
2013-03-28 09:42:00,75.0,59.0,-100.00,NNE,28,10.0,14.0,57,0.00,,,0.00,219.000000,,2013-03-28 19:42:00,
2013-03-28 10:12:00,81.0,57.0,-100.00,NE,40,10.0,17.0,44,0.00,,,0.00,615.000000,,2013-03-28 20:12:00,
2013-03-28 10:22:00,81.0,57.0,-100.00,NE,40,10.0,17.0,44,0.00,,,0.00,615.000000,,2013-03-28 20:22:00,
2013-03-28 10:32:00,81.0,57.0,-100.00,NE,40,10.0,17.0,44,0.00,,,0.00,615.000000,,2013-03-28 20:32:00,
2013-03-28 10:42:00,81.0,57.0,-100.00,NE,40,10.0,17.0,44,0.00,,,0.00,615.000000,,2013-03-28 20:42:00,
2013-03-28 11:02:00,80.0,57.0,-100.00,NE,47,10.0,19.0,46,0.00,,,0.00,539.000000,,2013-03-28 21:02:00,
2013-03-28 11:12:00,80.0,57.0,-100.00,NE,47,10.0,19.0,46,0.00,,,0.00,539.000000,,2013-03-28 21:12:00,
2013-03-28 11:22:00,80.0,57.0,-100.00,NE,47,10.0,19.0,46,0.00,,,0.00,539.000000,,2013-03-28 21:22:00,
2013-03-28 11:32:00,80.0,57.0,-100.00,NE,47,10.0,19.0,46,0.00,,,0.00,539.000000,,2013-03-28 21:32:00,
2013-03-28 11:42:00,80.0,57.0,-100.00,NE,47,10.0,19.0,46,0.00,,,0.00,539.000000,,2013-03-28 21:42:00,
2013-03-28 12:12:00,78.0,62.0,-100.00,East,91,15.0,23.0,57,0.00,,,0.00,683.000000,,2013-03-28 22:12:00,
2013-03-28 12:22:00,78.0,62.0,-100.00,East,91,15.0,23.0,57,0.00,,,0.00,683.000000,,2013-03-28 22:22:00,
2013-03-28 12:32:00,78.0,62.0,-100.00,East,91,15.0,23.0,57,0.00,,,0.00,683.000000,,2013-03-28 22:32:00,
2013-03-28 12:42:00,78.0,62.0,-100.00,East,91,15.0,23.0,57,0.00,,,0.00,683.000000,,2013-03-28 22:42:00,
2013-03-28 13:02:00,78.0,62.0,-100.00,East,89,17.0,28.0,57,0.00,,,0.00,762.000000,,2013-03-28 23:02:00,
2013-03-28 13:12:00,78.0,62.0,-100.00,East,89,17.0,28.0,57,0.00,,,0.00,762.000000,,2013-03-28 23:12:00,
2013-03-28 13:22:00,78.0,62.0,-100.00,East,89,17.0,28.0,57,0.00,,,0.00,762.000000,,2013-03-28 23:22:00,
2013-03-28 13:32:00,78.0,62.0,-100.00,East,89,17.0,28.0,57,0.00,,,0.00,762.000000,,2013-03-28 23:32:00,
2013-03-28 13:42:00,78.0,62.0,-100.00,East,89,17.0,28.0,57,0.00,,,0.00,762.000000,,2013-03-28 23:42:00,
2013-03-28 14:02:00,78.0,63.0,-100.00,East,81,17.0,25.0,61,0.00,,,0.00,332.000000,,2013-03-29 00:02:00,
2013-03-28 14:12:00,78.0,63.0,-100.00,East,81,17.0,25.0,61,0.00,,,0.00,332.000000,,2013-03-29 00:12:00,
2013-03-28 14:22:00,78.0,63.0,-100.00,East,81,17.0,25.0,61,0.00,,,0.00,332.000000,,2013-03-29 00:22:00,
2013-03-28 14:32:00,78.0,63.0,-100.00,East,81,17.0,25.0,61,0.00,,,0.00,332.000000,,2013-03-29 00:32:00,
2013-03-28 14:42:00,78.0,63.0,-100.00,East,81,17.0,25.0,61,0.00,,,0.00,332.000000,,2013-03-29 00:42:00,
2013-03-28 15:02:00,80.0,56.0,-100.00,NNE,33,15.0,25.0,44,0.00,,,-99.99,343.000000,,2013-03-29 01:02:00,
2013-03-28 15:12:00,80.0,56.0,-100.00,NNE,33,15.0,25.0,44,0.00,,,-99.99,343.000000,,2013-03-29 01:12:00,
2013-03-28 15:22:00,80.0,56.0,-100.00,NNE,33,15.0,25.0,44,0.00,,,-99.99,343.000000,,2013-03-29 01:22:00,
2013-03-28 15:31:00,80.0,56.0,-100.00,NNE,33,15.0,25.0,44,0.00,,,-99.99,343.000000,,2013-03-29 01:31:00,
2013-03-28 15:41:00,80.0,56.0,-100.00,NNE,33,15.0,25.0,44,0.00,,,-99.99,343.000000,,2013-03-29 01:41:00,
2013-03-28 16:02:00,81.0,56.0,-100.00,NE,48,19.0,29.0,43,0.00,,,-99.99,554.000000,,2013-03-29 02:02:00,
2013-03-28 16:12:00,81.0,56.0,-100.00,NE,48,19.0,29.0,43,0.00,,,-99.99,554.000000,,2013-03-29 02:12:00,
2013-03-28 16:22:00,81.0,56.0,-100.00,NE,48,19.0,29.0,43,0.00,,,-99.99,554.000000,,2013-03-29 02:22:00,
2013-03-28 16:32:00,81.0,56.0,-100.00,NE,48,19.0,29.0,43,0.00,,,-99.99,554.000000,,2013-03-29 02:32:00,
2013-03-28 16:42:00,81.0,56.0,-100.00,NE,48,19.0,29.0,43,0.00,,,-99.99,554.000000,,2013-03-29 02:42:00,
2013-03-28 17:02:00,81.0,56.0,-100.00,NNE,31,18.0,27.0,43,0.00,,,-99.99,532.000000,,2013-03-29 03:02:00,
2013-03-28 17:12:00,81.0,56.0,-100.00,NNE,31,18.0,27.0,43,0.00,,,-99.99,532.000000,,2013-03-29 03:12:00,
2013-03-28 17:21:00,81.0,56.0,-100.00,NNE,31,18.0,27.0,43,0.00,,,-99.99,532.000000,,2013-03-29 03:21:00,
2013-03-28 17:32:00,81.0,56.0,-100.00,NNE,31,18.0,27.0,43,0.00,,,-99.99,532.000000,,2013-03-29 03:32:00,
2013-03-28 17:42:00,81.0,56.0,-100.00,NNE,31,18.0,27.0,43,0.00,,,-99.99,532.000000,,2013-03-29 03:42:00,
2013-03-28 18:02:00,76.0,55.0,-100.00,NNE,21,18.0,26.0,48,0.00,,,-99.99,278.000000,,2013-03-29 04:02:00,
2013-03-28 18:12:00,76.0,55.0,-100.00,NNE,21,18.0,26.0,48,0.00,,,-99.99,278.000000,,2013-03-29 04:12:00,
2013-03-28 18:22:00,76.0,55.0,-100.00,NNE,21,18.0,26.0,48,0.00,,,-99.99,278.000000,,2013-03-29 04:22:00,
2013-03-28 18:33:00,76.0,55.0,-100.00,NNE,21,18.0,26.0,48,0.00,,,-99.99,278.000000,,2013-03-29 04:33:00,
2013-03-28 18:42:00,76.0,55.0,-100.00,NNE,21,18.0,26.0,48,0.00,,,-99.99,278.000000,,2013-03-29 04:42:00,
2013-03-28 19:02:00,75.0,57.0,-100.00,North,8,18.0,26.0,53,0.00,,,-99.99,31.000000,,2013-03-29 05:02:00,
2013-03-28 19:12:00,75.0,57.0,-100.00,North,8,18.0,26.0,53,0.00,,,-99.99,31.000000,,2013-03-29 05:12:00,
2013-03-28 19:22:00,75.0,57.0,-100.00,North,8,18.0,26.0,53,0.00,,,-99.99,31.000000,,2013-03-29 05:22:00,
2013-03-28 19:32:00,75.0,57.0,-100.00,North,8,18.0,26.0,53,0.00,,,-99.99,31.000000,,2013-03-29 05:32:00,
2013-03-28 19:42:00,75.0,57.0,-100.00,North,8,18.0,26.0,53,0.00,,,-99.99,31.000000,,2013-03-29 05:42:00,
2013-03-28 20:02:00,74.0,59.0,-100.00,North,2,17.0,27.0,59,0.00,,,-99.99,0.000000,,2013-03-29 06:02:00,
2013-03-28 20:12:00,74.0,59.0,-100.00,North,2,17.0,27.0,59,0.00,,,-99.99,0.000000,,2013-03-29 06:12:00,
2013-03-28 20:22:00,74.0,59.0,-100.00,North,2,17.0,27.0,59,0.00,,,-99.99,0.000000,,2013-03-29 06:22:00,
2013-03-28 20:32:00,74.0,59.0,-100.00,North,2,17.0,27.0,59,0.00,,,-99.99,0.000000,,2013-03-29 06:32:00,
2013-03-28 20:42:00,74.0,59.0,-100.00,North,2,17.0,27.0,59,0.00,,,-99.99,0.000000,,2013-03-29 06:42:00,
2013-03-28 21:12:00,72.0,56.0,-100.00,North,357,15.0,25.0,58,0.00,,,-99.99,0.000000,,2013-03-29 07:12:00,
2013-03-28 21:22:00,72.0,56.0,-100.00,North,357,15.0,25.0,58,0.00,,,-99.99,0.000000,,2013-03-29 07:22:00,
2013-03-28 21:32:00,72.0,56.0,-100.00,North,357,15.0,25.0,58,0.00,,,-99.99,0.000000,,2013-03-29 07:32:00,
2013-03-28 21:42:00,72.0,56.0,-100.00,North,357,15.0,25.0,58,0.00,,,-99.99,0.000000,,2013-03-29 07:42:00,
2013-03-28 22:02:00,72.0,55.0,-100.00,North,352,17.0,24.0,55,0.00,,,-99.99,0.000000,,2013-03-29 08:02:00,
2013-03-28 22:12:00,72.0,55.0,-100.00,North,352,17.0,24.0,55,0.00,,,-99.99,0.000000,,2013-03-29 08:12:00,
2013-03-28 22:22:00,72.0,55.0,-100.00,North,352,17.0,24.0,55,0.00,,,-99.99,0.000000,,2013-03-29 08:22:00,
2013-03-28 22:32:00,72.0,55.0,-100.00,North,352,17.0,24.0,55,0.00,,,-99.99,0.000000,,2013-03-29 08:32:00,
2013-03-28 22:42:00,72.0,55.0,-100.00,North,352,17.0,24.0,55,0.00,,,-99.99,0.000000,,2013-03-29 08:42:00,
2013-03-28 23:02:00,72.0,56.0,-100.00,North,358,16.0,23.0,58,0.00,,,-99.99,0.000000,,2013-03-29 09:02:00,
2013-03-28 23:12:00,72.0,56.0,-100.00,North,358,16.0,23.0,58,0.00,,,-99.99,0.000000,,2013-03-29 09:12:00,
2013-03-28 23:22:00,72.0,56.0,-100.00,North,358,16.0,23.0,58,0.00,,,-99.99,0.000000,,2013-03-29 09:22:00,
2013-03-28 23:32:00,72.0,56.0,-100.00,North,358,16.0,23.0,58,0.00,,,-99.99,0.000000,,2013-03-29 09:32:00,
2013-03-28 23:42:00,72.0,56.0,-100.00,North,358,16.0,23.0,58,0.00,,,-99.99,0.000000,,2013-03-29 09:42:00,